sensor_id;sensor_type;location;lat;lon;timestamp;P1;durP1;ratioP1;P2;durP2;ratioP2
18649;SDS011;9454;53.516;10.478;2023-04-23T00:00:13;1.90;;;1.35;;
18649;SDS011;9454;53.516;10.478;2023-04-23T00:03:17;1.50;;;1.30;;
18649;SDS011;9454;53.516;10.478;2023-04-23T00:06:29;2.03;;;1.50;;
18649;SDS011;9454;53.516;10.478;2023-04-23T00:09:34;5.72;;;1.38;;
18649;SDS011;9454;53.516;10.478;2023-04-23T00:12:39;3.28;;;1.70;;
18649;SDS011;9454;53.516;10.478;2023-04-23T00:15:44;2.78;;;1.42;;
18649;SDS011;9454;53.516;10.478;2023-04-23T00:18:50;1.88;;;1.50;;
18649;SDS011;9454;53.516;10.478;2023-04-23T00:21:59;3.05;;;1.40;;
18649;SDS011;9454;53.516;10.478;2023-04-23T00:25:05;2.00;;;1.60;;
18649;SDS011;9454;53.516;10.478;2023-04-23T00:28:09;1.38;;;1.27;;
18649;SDS011;9454;53.516;10.478;2023-04-23T00:31:15;3.10;;;1.75;;
18649;SDS011;9454;53.516;10.478;2023-04-23T00:34:18;4.35;;;1.70;;
18649;SDS011;9454;53.516;10.478;2023-04-23T00:37:23;2.47;;;1.52;;
18649;SDS011;9454;53.516;10.478;2023-04-23T00:40:27;2.10;;;1.40;;
18649;SDS011;9454;53.516;10.478;2023-04-23T00:43:34;2.33;;;1.30;;
18649;SDS011;9454;53.516;10.478;2023-04-23T00:46:38;4.63;;;1.90;;
18649;SDS011;9454;53.516;10.478;2023-04-23T00:49:41;1.95;;;1.35;;
18649;SDS011;9454;53.516;10.478;2023-04-23T00:52:48;3.65;;;1.77;;
18649;SDS011;9454;53.516;10.478;2023-04-23T00:55:56;3.22;;;1.70;;
18649;SDS011;9454;53.516;10.478;2023-04-23T00:58:59;2.63;;;1.73;;
18649;SDS011;9454;53.516;10.478;2023-04-23T01:02:03;3.90;;;1.90;;
18649;SDS011;9454;53.516;10.478;2023-04-23T01:05:08;5.00;;;1.55;;
18649;SDS011;9454;53.516;10.478;2023-04-23T01:08:13;2.95;;;1.98;;
18649;SDS011;9454;53.516;10.478;2023-04-23T01:11:21;4.53;;;1.80;;
18649;SDS011;9454;53.516;10.478;2023-04-23T01:14:24;2.65;;;1.70;;
18649;SDS011;9454;53.516;10.478;2023-04-23T01:17:29;4.13;;;2.17;;
18649;SDS011;9454;53.516;10.478;2023-04-23T01:20:32;2.47;;;2.17;;
18649;SDS011;9454;53.516;10.478;2023-04-23T01:23:40;3.72;;;2.30;;
18649;SDS011;9454;53.516;10.478;2023-04-23T01:26:44;4.25;;;2.53;;
18649;SDS011;9454;53.516;10.478;2023-04-23T01:29:48;2.67;;;2.28;;
18649;SDS011;9454;53.516;10.478;2023-04-23T01:32:53;4.05;;;2.55;;
18649;SDS011;9454;53.516;10.478;2023-04-23T01:35:57;6.72;;;2.30;;
18649;SDS011;9454;53.516;10.478;2023-04-23T01:39:10;6.72;;;2.65;;
18649;SDS011;9454;53.516;10.478;2023-04-23T01:42:16;3.55;;;2.05;;
18649;SDS011;9454;53.516;10.478;2023-04-23T01:45:20;3.67;;;2.42;;
18649;SDS011;9454;53.516;10.478;2023-04-23T01:48:26;3.75;;;2.20;;
18649;SDS011;9454;53.516;10.478;2023-04-23T01:51:31;2.97;;;2.13;;
18649;SDS011;9454;53.516;10.478;2023-04-23T01:54:38;3.47;;;2.00;;
18649;SDS011;9454;53.516;10.478;2023-04-23T01:57:42;5.13;;;2.20;;
18649;SDS011;9454;53.516;10.478;2023-04-23T02:00:46;4.20;;;2.47;;
18649;SDS011;9454;53.516;10.478;2023-04-23T02:03:50;4.03;;;2.28;;
18649;SDS011;9454;53.516;10.478;2023-04-23T02:06:54;5.47;;;2.72;;
18649;SDS011;9454;53.516;10.478;2023-04-23T02:10:00;9.75;;;2.22;;
18649;SDS011;9454;53.516;10.478;2023-04-23T02:13:04;4.10;;;2.22;;
18649;SDS011;9454;53.516;10.478;2023-04-23T02:16:07;4.68;;;2.53;;
18649;SDS011;9454;53.516;10.478;2023-04-23T02:19:11;5.18;;;2.40;;
18649;SDS011;9454;53.516;10.478;2023-04-23T02:22:16;5.00;;;2.20;;
18649;SDS011;9454;53.516;10.478;2023-04-23T02:25:22;2.85;;;2.17;;
18649;SDS011;9454;53.516;10.478;2023-04-23T02:28:25;4.18;;;1.98;;
18649;SDS011;9454;53.516;10.478;2023-04-23T02:31:30;2.88;;;1.95;;
18649;SDS011;9454;53.516;10.478;2023-04-23T02:34:40;3.88;;;2.20;;
18649;SDS011;9454;53.516;10.478;2023-04-23T02:37:45;4.00;;;2.20;;
18649;SDS011;9454;53.516;10.478;2023-04-23T02:40:50;4.18;;;2.42;;
18649;SDS011;9454;53.516;10.478;2023-04-23T02:43:55;2.60;;;2.20;;
18649;SDS011;9454;53.516;10.478;2023-04-23T02:47:03;3.30;;;2.00;;
18649;SDS011;9454;53.516;10.478;2023-04-23T02:50:07;6.75;;;2.63;;
18649;SDS011;9454;53.516;10.478;2023-04-23T02:53:14;5.18;;;2.13;;
18649;SDS011;9454;53.516;10.478;2023-04-23T02:56:20;3.53;;;2.65;;
18649;SDS011;9454;53.516;10.478;2023-04-23T02:59:24;7.25;;;2.40;;
18649;SDS011;9454;53.516;10.478;2023-04-23T03:02:28;4.03;;;2.40;;
18649;SDS011;9454;53.516;10.478;2023-04-23T03:05:32;4.07;;;2.88;;
18649;SDS011;9454;53.516;10.478;2023-04-23T03:08:37;4.20;;;3.08;;
18649;SDS011;9454;53.516;10.478;2023-04-23T03:11:44;5.00;;;3.33;;
18649;SDS011;9454;53.516;10.478;2023-04-23T03:14:51;7.57;;;3.47;;
18649;SDS011;9454;53.516;10.478;2023-04-23T03:17:57;5.10;;;3.60;;
18649;SDS011;9454;53.516;10.478;2023-04-23T03:21:05;6.95;;;3.65;;
18649;SDS011;9454;53.516;10.478;2023-04-23T03:24:11;7.88;;;5.30;;
18649;SDS011;9454;53.516;10.478;2023-04-23T03:27:16;10.18;;;6.25;;
18649;SDS011;9454;53.516;10.478;2023-04-23T03:30:20;9.95;;;6.18;;
18649;SDS011;9454;53.516;10.478;2023-04-23T03:33:26;11.23;;;7.15;;
18649;SDS011;9454;53.516;10.478;2023-04-23T03:36:30;13.30;;;7.70;;
18649;SDS011;9454;53.516;10.478;2023-04-23T03:39:34;13.75;;;7.60;;
18649;SDS011;9454;53.516;10.478;2023-04-23T03:42:44;14.93;;;8.60;;
18649;SDS011;9454;53.516;10.478;2023-04-23T03:45:50;16.77;;;9.02;;
18649;SDS011;9454;53.516;10.478;2023-04-23T03:48:56;16.20;;;8.30;;
18649;SDS011;9454;53.516;10.478;2023-04-23T03:52:01;13.43;;;8.05;;
18649;SDS011;9454;53.516;10.478;2023-04-23T03:55:09;16.45;;;8.88;;
18649;SDS011;9454;53.516;10.478;2023-04-23T03:58:20;16.20;;;8.40;;
18649;SDS011;9454;53.516;10.478;2023-04-23T04:01:24;13.07;;;8.13;;
18649;SDS011;9454;53.516;10.478;2023-04-23T04:04:27;19.05;;;9.02;;
18649;SDS011;9454;53.516;10.478;2023-04-23T04:07:38;13.95;;;8.80;;
18649;SDS011;9454;53.516;10.478;2023-04-23T04:10:44;16.42;;;9.13;;
18649;SDS011;9454;53.516;10.478;2023-04-23T04:13:49;14.10;;;7.25;;
18649;SDS011;9454;53.516;10.478;2023-04-23T04:16:52;18.38;;;8.30;;
18649;SDS011;9454;53.516;10.478;2023-04-23T04:20:00;17.20;;;9.43;;
18649;SDS011;9454;53.516;10.478;2023-04-23T04:23:04;16.75;;;8.38;;
18649;SDS011;9454;53.516;10.478;2023-04-23T04:26:08;21.25;;;9.65;;
18649;SDS011;9454;53.516;10.478;2023-04-23T04:29:13;16.45;;;8.93;;
18649;SDS011;9454;53.516;10.478;2023-04-23T04:32:17;17.80;;;9.30;;
18649;SDS011;9454;53.516;10.478;2023-04-23T04:35:24;13.05;;;7.45;;
18649;SDS011;9454;53.516;10.478;2023-04-23T04:38:27;15.15;;;8.55;;
18649;SDS011;9454;53.516;10.478;2023-04-23T04:41:31;18.38;;;9.23;;
18649;SDS011;9454;53.516;10.478;2023-04-23T04:44:37;12.88;;;7.82;;
18649;SDS011;9454;53.516;10.478;2023-04-23T04:47:42;19.20;;;9.32;;
18649;SDS011;9454;53.516;10.478;2023-04-23T04:50:46;14.73;;;7.63;;
18649;SDS011;9454;53.516;10.478;2023-04-23T04:53:50;19.20;;;8.95;;
18649;SDS011;9454;53.516;10.478;2023-04-23T04:56:55;17.30;;;9.10;;
18649;SDS011;9454;53.516;10.478;2023-04-23T05:00:17;15.63;;;8.50;;
18649;SDS011;9454;53.516;10.478;2023-04-23T05:03:23;17.05;;;8.98;;
18649;SDS011;9454;53.516;10.478;2023-04-23T05:06:27;13.27;;;6.97;;
18649;SDS011;9454;53.516;10.478;2023-04-23T05:09:31;15.50;;;7.88;;
18649;SDS011;9454;53.516;10.478;2023-04-23T05:12:38;14.75;;;7.50;;
18649;SDS011;9454;53.516;10.478;2023-04-23T05:15:44;14.90;;;6.97;;
18649;SDS011;9454;53.516;10.478;2023-04-23T05:18:49;13.07;;;6.80;;
18649;SDS011;9454;53.516;10.478;2023-04-23T05:21:56;10.23;;;5.85;;
18649;SDS011;9454;53.516;10.478;2023-04-23T05:25:07;13.45;;;6.50;;
18649;SDS011;9454;53.516;10.478;2023-04-23T05:28:13;9.45;;;5.80;;
18649;SDS011;9454;53.516;10.478;2023-04-23T05:31:18;9.52;;;5.32;;
18649;SDS011;9454;53.516;10.478;2023-04-23T05:34:22;6.45;;;3.40;;
18649;SDS011;9454;53.516;10.478;2023-04-23T05:37:28;7.38;;;4.07;;
18649;SDS011;9454;53.516;10.478;2023-04-23T05:40:34;7.40;;;3.67;;
18649;SDS011;9454;53.516;10.478;2023-04-23T05:43:41;6.43;;;3.65;;
18649;SDS011;9454;53.516;10.478;2023-04-23T05:46:47;6.63;;;4.10;;
18649;SDS011;9454;53.516;10.478;2023-04-23T05:49:50;7.03;;;3.83;;
18649;SDS011;9454;53.516;10.478;2023-04-23T05:52:54;7.07;;;3.65;;
18649;SDS011;9454;53.516;10.478;2023-04-23T05:55:58;7.05;;;3.65;;
18649;SDS011;9454;53.516;10.478;2023-04-23T05:59:06;5.07;;;2.70;;
18649;SDS011;9454;53.516;10.478;2023-04-23T06:02:14;5.07;;;2.20;;
18649;SDS011;9454;53.516;10.478;2023-04-23T06:05:18;4.13;;;2.35;;
18649;SDS011;9454;53.516;10.478;2023-04-23T06:08:22;5.82;;;2.42;;
18649;SDS011;9454;53.516;10.478;2023-04-23T06:11:28;6.65;;;2.03;;
18649;SDS011;9454;53.516;10.478;2023-04-23T06:14:33;7.32;;;2.90;;
18649;SDS011;9454;53.516;10.478;2023-04-23T06:17:38;5.70;;;2.80;;
18649;SDS011;9454;53.516;10.478;2023-04-23T06:20:42;6.50;;;2.65;;
18649;SDS011;9454;53.516;10.478;2023-04-23T06:23:49;5.32;;;2.15;;
18649;SDS011;9454;53.516;10.478;2023-04-23T06:26:52;4.78;;;2.58;;
18649;SDS011;9454;53.516;10.478;2023-04-23T06:30:00;3.47;;;1.88;;
18649;SDS011;9454;53.516;10.478;2023-04-23T06:33:07;4.43;;;2.92;;
18649;SDS011;9454;53.516;10.478;2023-04-23T06:36:11;4.85;;;2.50;;
18649;SDS011;9454;53.516;10.478;2023-04-23T06:39:15;6.05;;;2.38;;
18649;SDS011;9454;53.516;10.478;2023-04-23T06:42:21;4.20;;;1.92;;
18649;SDS011;9454;53.516;10.478;2023-04-23T06:45:46;5.28;;;2.63;;
18649;SDS011;9454;53.516;10.478;2023-04-23T06:48:51;3.92;;;2.85;;
18649;SDS011;9454;53.516;10.478;2023-04-23T06:51:56;7.70;;;3.17;;
18649;SDS011;9454;53.516;10.478;2023-04-23T06:55:00;4.70;;;2.67;;
18649;SDS011;9454;53.516;10.478;2023-04-23T06:58:06;6.50;;;2.70;;
18649;SDS011;9454;53.516;10.478;2023-04-23T07:01:10;7.85;;;2.72;;
18649;SDS011;9454;53.516;10.478;2023-04-23T07:04:15;4.20;;;2.55;;
18649;SDS011;9454;53.516;10.478;2023-04-23T07:07:20;4.25;;;2.47;;
18649;SDS011;9454;53.516;10.478;2023-04-23T07:10:24;5.47;;;2.58;;
18649;SDS011;9454;53.516;10.478;2023-04-23T07:13:29;4.22;;;2.15;;
18649;SDS011;9454;53.516;10.478;2023-04-23T07:16:40;3.58;;;2.45;;
18649;SDS011;9454;53.516;10.478;2023-04-23T07:19:50;3.55;;;2.15;;
18649;SDS011;9454;53.516;10.478;2023-04-23T07:22:57;4.38;;;2.42;;
18649;SDS011;9454;53.516;10.478;2023-04-23T07:26:04;3.72;;;2.03;;
18649;SDS011;9454;53.516;10.478;2023-04-23T07:29:09;4.35;;;2.08;;
18649;SDS011;9454;53.516;10.478;2023-04-23T07:32:14;2.67;;;1.50;;
18649;SDS011;9454;53.516;10.478;2023-04-23T07:35:27;2.83;;;1.65;;
18649;SDS011;9454;53.516;10.478;2023-04-23T07:38:31;5.72;;;1.70;;
18649;SDS011;9454;53.516;10.478;2023-04-23T07:41:35;3.60;;;1.70;;
18649;SDS011;9454;53.516;10.478;2023-04-23T07:44:39;3.03;;;1.35;;
18649;SDS011;9454;53.516;10.478;2023-04-23T07:47:43;5.95;;;1.70;;
18649;SDS011;9454;53.516;10.478;2023-04-23T07:50:49;3.20;;;2.03;;
18649;SDS011;9454;53.516;10.478;2023-04-23T07:53:54;1.92;;;1.40;;
18649;SDS011;9454;53.516;10.478;2023-04-23T07:57:00;6.35;;;1.70;;
18649;SDS011;9454;53.516;10.478;2023-04-23T08:00:05;7.43;;;2.47;;
18649;SDS011;9454;53.516;10.478;2023-04-23T08:03:12;5.43;;;2.25;;
18649;SDS011;9454;53.516;10.478;2023-04-23T08:06:17;5.30;;;2.22;;
18649;SDS011;9454;53.516;10.478;2023-04-23T08:09:21;4.72;;;2.47;;
18649;SDS011;9454;53.516;10.478;2023-04-23T08:12:25;5.25;;;2.47;;
18649;SDS011;9454;53.516;10.478;2023-04-23T08:15:29;6.25;;;3.28;;
18649;SDS011;9454;53.516;10.478;2023-04-23T08:18:33;4.57;;;2.65;;
18649;SDS011;9454;53.516;10.478;2023-04-23T08:21:41;7.38;;;3.00;;
18649;SDS011;9454;53.516;10.478;2023-04-23T08:24:45;6.82;;;3.72;;
18649;SDS011;9454;53.516;10.478;2023-04-23T08:27:51;5.05;;;3.15;;
18649;SDS011;9454;53.516;10.478;2023-04-23T08:30:55;4.45;;;2.83;;
18649;SDS011;9454;53.516;10.478;2023-04-23T08:33:58;5.32;;;2.85;;
18649;SDS011;9454;53.516;10.478;2023-04-23T08:37:03;4.25;;;2.58;;
18649;SDS011;9454;53.516;10.478;2023-04-23T08:40:17;5.22;;;2.72;;
18649;SDS011;9454;53.516;10.478;2023-04-23T08:43:23;4.65;;;2.53;;
18649;SDS011;9454;53.516;10.478;2023-04-23T08:46:30;6.80;;;3.35;;
18649;SDS011;9454;53.516;10.478;2023-04-23T08:49:37;5.53;;;2.63;;
18649;SDS011;9454;53.516;10.478;2023-04-23T08:52:48;4.35;;;2.42;;
18649;SDS011;9454;53.516;10.478;2023-04-23T08:55:55;3.38;;;2.25;;
18649;SDS011;9454;53.516;10.478;2023-04-23T08:59:01;3.83;;;2.20;;
18649;SDS011;9454;53.516;10.478;2023-04-23T09:02:09;4.32;;;2.53;;
18649;SDS011;9454;53.516;10.478;2023-04-23T09:05:13;6.20;;;2.70;;
18649;SDS011;9454;53.516;10.478;2023-04-23T09:08:20;4.82;;;2.67;;
18649;SDS011;9454;53.516;10.478;2023-04-23T09:11:26;7.95;;;2.60;;
18649;SDS011;9454;53.516;10.478;2023-04-23T09:14:29;2.55;;;1.95;;
18649;SDS011;9454;53.516;10.478;2023-04-23T09:17:33;4.07;;;2.63;;
18649;SDS011;9454;53.516;10.478;2023-04-23T09:20:45;5.10;;;3.00;;
18649;SDS011;9454;53.516;10.478;2023-04-23T09:23:54;3.85;;;2.10;;
18649;SDS011;9454;53.516;10.478;2023-04-23T09:26:58;3.35;;;1.98;;
18649;SDS011;9454;53.516;10.478;2023-04-23T09:30:01;6.45;;;2.42;;
18649;SDS011;9454;53.516;10.478;2023-04-23T09:33:09;4.95;;;2.20;;
18649;SDS011;9454;53.516;10.478;2023-04-23T09:36:14;4.00;;;2.35;;
18649;SDS011;9454;53.516;10.478;2023-04-23T09:39:22;5.45;;;2.15;;
18649;SDS011;9454;53.516;10.478;2023-04-23T09:42:26;3.45;;;1.95;;
18649;SDS011;9454;53.516;10.478;2023-04-23T09:45:33;3.45;;;2.60;;
18649;SDS011;9454;53.516;10.478;2023-04-23T09:48:39;5.90;;;2.10;;
18649;SDS011;9454;53.516;10.478;2023-04-23T09:51:47;2.70;;;2.17;;
18649;SDS011;9454;53.516;10.478;2023-04-23T09:54:52;5.72;;;2.08;;
18649;SDS011;9454;53.516;10.478;2023-04-23T09:57:58;4.20;;;2.25;;
18649;SDS011;9454;53.516;10.478;2023-04-23T10:01:05;7.15;;;3.08;;
18649;SDS011;9454;53.516;10.478;2023-04-23T10:04:10;5.20;;;2.60;;
18649;SDS011;9454;53.516;10.478;2023-04-23T10:07:16;3.00;;;2.03;;
18649;SDS011;9454;53.516;10.478;2023-04-23T10:10:22;4.63;;;2.33;;
18649;SDS011;9454;53.516;10.478;2023-04-23T10:13:27;3.88;;;2.70;;
18649;SDS011;9454;53.516;10.478;2023-04-23T10:16:31;5.72;;;2.50;;
18649;SDS011;9454;53.516;10.478;2023-04-23T10:19:49;5.28;;;2.28;;
18649;SDS011;9454;53.516;10.478;2023-04-23T10:22:58;3.78;;;2.20;;
18649;SDS011;9454;53.516;10.478;2023-04-23T10:26:08;3.55;;;2.28;;
18649;SDS011;9454;53.516;10.478;2023-04-23T10:29:14;3.47;;;2.17;;
18649;SDS011;9454;53.516;10.478;2023-04-23T10:32:19;3.00;;;2.25;;
18649;SDS011;9454;53.516;10.478;2023-04-23T10:35:23;3.65;;;2.13;;
18649;SDS011;9454;53.516;10.478;2023-04-23T10:38:27;4.20;;;2.55;;
18649;SDS011;9454;53.516;10.478;2023-04-23T10:41:34;4.07;;;2.53;;
18649;SDS011;9454;53.516;10.478;2023-04-23T10:44:41;5.55;;;2.65;;
18649;SDS011;9454;53.516;10.478;2023-04-23T10:48:01;6.45;;;2.22;;
18649;SDS011;9454;53.516;10.478;2023-04-23T10:51:06;4.13;;;1.85;;
18649;SDS011;9454;53.516;10.478;2023-04-23T10:54:29;3.55;;;2.30;;
18649;SDS011;9454;53.516;10.478;2023-04-23T10:57:40;3.42;;;2.25;;
18649;SDS011;9454;53.516;10.478;2023-04-23T11:01:07;3.92;;;2.20;;
18649;SDS011;9454;53.516;10.478;2023-04-23T11:04:20;4.47;;;2.53;;
18649;SDS011;9454;53.516;10.478;2023-04-23T11:07:29;3.35;;;2.50;;
18649;SDS011;9454;53.516;10.478;2023-04-23T11:10:45;3.70;;;2.53;;
18649;SDS011;9454;53.516;10.478;2023-04-23T11:13:55;5.57;;;3.10;;
18649;SDS011;9454;53.516;10.478;2023-04-23T11:17:00;4.80;;;3.20;;
18649;SDS011;9454;53.516;10.478;2023-04-23T11:20:05;5.50;;;2.97;;
18649;SDS011;9454;53.516;10.478;2023-04-23T11:23:13;6.32;;;3.20;;
18649;SDS011;9454;53.516;10.478;2023-04-23T11:26:33;2.92;;;2.28;;
18649;SDS011;9454;53.516;10.478;2023-04-23T11:29:44;7.78;;;2.50;;
18649;SDS011;9454;53.516;10.478;2023-04-23T11:33:20;3.58;;;2.00;;
18649;SDS011;9454;53.516;10.478;2023-04-23T11:36:29;3.75;;;2.78;;
18649;SDS011;9454;53.516;10.478;2023-04-23T11:39:33;4.68;;;3.10;;
18649;SDS011;9454;53.516;10.478;2023-04-23T11:42:40;4.63;;;3.13;;
18649;SDS011;9454;53.516;10.478;2023-04-23T11:45:49;5.20;;;3.45;;
18649;SDS011;9454;53.516;10.478;2023-04-23T11:48:53;6.38;;;3.20;;
18649;SDS011;9454;53.516;10.478;2023-04-23T11:52:00;5.93;;;3.60;;
18649;SDS011;9454;53.516;10.478;2023-04-23T11:55:05;5.22;;;2.88;;
18649;SDS011;9454;53.516;10.478;2023-04-23T11:58:18;3.63;;;2.75;;
18649;SDS011;9454;53.516;10.478;2023-04-23T12:01:28;4.65;;;2.75;;
18649;SDS011;9454;53.516;10.478;2023-04-23T12:04:47;5.10;;;3.45;;
18649;SDS011;9454;53.516;10.478;2023-04-23T12:08:01;4.30;;;2.92;;
18649;SDS011;9454;53.516;10.478;2023-04-23T12:11:21;4.22;;;2.75;;
18649;SDS011;9454;53.516;10.478;2023-04-23T12:14:38;3.80;;;2.85;;
18649;SDS011;9454;53.516;10.478;2023-04-23T12:17:44;4.57;;;3.38;;
18649;SDS011;9454;53.516;10.478;2023-04-23T12:21:09;3.47;;;2.35;;
18649;SDS011;9454;53.516;10.478;2023-04-23T12:24:17;7.78;;;2.92;;
18649;SDS011;9454;53.516;10.478;2023-04-23T12:27:21;3.47;;;2.42;;
18649;SDS011;9454;53.516;10.478;2023-04-23T12:30:27;4.72;;;2.80;;
18649;SDS011;9454;53.516;10.478;2023-04-23T12:33:33;6.57;;;3.10;;
18649;SDS011;9454;53.516;10.478;2023-04-23T12:36:37;4.47;;;2.72;;
18649;SDS011;9454;53.516;10.478;2023-04-23T12:39:41;3.63;;;2.35;;
18649;SDS011;9454;53.516;10.478;2023-04-23T12:42:45;8.77;;;3.53;;
18649;SDS011;9454;53.516;10.478;2023-04-23T12:45:49;4.28;;;2.90;;
18649;SDS011;9454;53.516;10.478;2023-04-23T12:48:54;4.53;;;2.88;;
18649;SDS011;9454;53.516;10.478;2023-04-23T12:52:02;6.47;;;2.50;;
18649;SDS011;9454;53.516;10.478;2023-04-23T12:55:06;6.05;;;2.65;;
18649;SDS011;9454;53.516;10.478;2023-04-23T12:58:21;5.03;;;2.40;;
18649;SDS011;9454;53.516;10.478;2023-04-23T13:01:26;3.13;;;2.10;;
18649;SDS011;9454;53.516;10.478;2023-04-23T13:04:32;3.20;;;2.00;;
18649;SDS011;9454;53.516;10.478;2023-04-23T13:07:36;3.72;;;2.05;;
18649;SDS011;9454;53.516;10.478;2023-04-23T13:10:40;2.97;;;2.13;;
18649;SDS011;9454;53.516;10.478;2023-04-23T13:13:45;4.25;;;2.38;;
18649;SDS011;9454;53.516;10.478;2023-04-23T13:16:50;4.07;;;2.50;;
18649;SDS011;9454;53.516;10.478;2023-04-23T13:19:55;4.05;;;2.25;;
18649;SDS011;9454;53.516;10.478;2023-04-23T13:22:59;2.65;;;1.52;;
18649;SDS011;9454;53.516;10.478;2023-04-23T13:26:04;3.60;;;1.83;;
18649;SDS011;9454;53.516;10.478;2023-04-23T13:29:08;2.67;;;1.83;;
18649;SDS011;9454;53.516;10.478;2023-04-23T13:32:12;2.30;;;1.60;;
18649;SDS011;9454;53.516;10.478;2023-04-23T13:35:27;6.07;;;1.73;;
18649;SDS011;9454;53.516;10.478;2023-04-23T13:38:31;2.25;;;1.65;;
18649;SDS011;9454;53.516;10.478;2023-04-23T13:41:36;2.58;;;1.50;;
18649;SDS011;9454;53.516;10.478;2023-04-23T13:44:40;3.55;;;1.50;;
18649;SDS011;9454;53.516;10.478;2023-04-23T13:47:43;3.35;;;1.58;;
18649;SDS011;9454;53.516;10.478;2023-04-23T13:50:52;3.20;;;1.67;;
18649;SDS011;9454;53.516;10.478;2023-04-23T13:54:21;2.47;;;1.40;;
18649;SDS011;9454;53.516;10.478;2023-04-23T13:57:25;1.85;;;1.50;;
18649;SDS011;9454;53.516;10.478;2023-04-23T14:00:29;2.25;;;1.80;;
18649;SDS011;9454;53.516;10.478;2023-04-23T14:03:35;3.30;;;1.60;;
18649;SDS011;9454;53.516;10.478;2023-04-23T14:06:43;3.05;;;1.98;;
18649;SDS011;9454;53.516;10.478;2023-04-23T14:09:47;2.92;;;2.00;;
18649;SDS011;9454;53.516;10.478;2023-04-23T14:12:53;4.35;;;2.05;;
18649;SDS011;9454;53.516;10.478;2023-04-23T14:15:57;2.90;;;1.67;;
18649;SDS011;9454;53.516;10.478;2023-04-23T14:19:07;2.15;;;1.50;;
18649;SDS011;9454;53.516;10.478;2023-04-23T14:22:12;1.88;;;1.23;;
18649;SDS011;9454;53.516;10.478;2023-04-23T14:25:22;2.13;;;1.20;;
18649;SDS011;9454;53.516;10.478;2023-04-23T14:28:27;2.50;;;1.48;;
18649;SDS011;9454;53.516;10.478;2023-04-23T14:31:31;3.42;;;1.88;;
18649;SDS011;9454;53.516;10.478;2023-04-23T14:34:40;3.40;;;1.67;;
18649;SDS011;9454;53.516;10.478;2023-04-23T14:37:48;4.30;;;1.58;;
18649;SDS011;9454;53.516;10.478;2023-04-23T14:40:51;6.38;;;1.50;;
18649;SDS011;9454;53.516;10.478;2023-04-23T14:43:55;2.88;;;1.42;;
18649;SDS011;9454;53.516;10.478;2023-04-23T14:47:05;2.45;;;1.75;;
18649;SDS011;9454;53.516;10.478;2023-04-23T14:50:10;1.85;;;1.50;;
18649;SDS011;9454;53.516;10.478;2023-04-23T14:53:28;3.13;;;1.58;;
18649;SDS011;9454;53.516;10.478;2023-04-23T14:56:31;2.50;;;1.38;;
18649;SDS011;9454;53.516;10.478;2023-04-23T14:59:35;4.40;;;1.40;;
18649;SDS011;9454;53.516;10.478;2023-04-23T15:02:38;1.98;;;1.27;;
18649;SDS011;9454;53.516;10.478;2023-04-23T15:05:48;2.28;;;1.38;;
18649;SDS011;9454;53.516;10.478;2023-04-23T15:08:53;6.07;;;1.67;;
18649;SDS011;9454;53.516;10.478;2023-04-23T15:11:59;1.67;;;1.38;;
18649;SDS011;9454;53.516;10.478;2023-04-23T15:15:04;1.75;;;1.45;;
18649;SDS011;9454;53.516;10.478;2023-04-23T15:18:08;2.58;;;1.80;;
18649;SDS011;9454;53.516;10.478;2023-04-23T15:21:12;2.25;;;1.60;;
18649;SDS011;9454;53.516;10.478;2023-04-23T15:24:17;2.55;;;1.83;;
18649;SDS011;9454;53.516;10.478;2023-04-23T15:27:21;3.28;;;1.80;;
18649;SDS011;9454;53.516;10.478;2023-04-23T15:30:25;1.75;;;1.45;;
18649;SDS011;9454;53.516;10.478;2023-04-23T15:33:29;6.32;;;1.60;;
18649;SDS011;9454;53.516;10.478;2023-04-23T15:36:40;5.13;;;1.35;;
18649;SDS011;9454;53.516;10.478;2023-04-23T15:39:45;3.88;;;1.48;;
18649;SDS011;9454;53.516;10.478;2023-04-23T15:42:49;3.33;;;1.55;;
18649;SDS011;9454;53.516;10.478;2023-04-23T15:45:52;2.95;;;1.67;;
18649;SDS011;9454;53.516;10.478;2023-04-23T15:49:00;4.55;;;2.70;;
18649;SDS011;9454;53.516;10.478;2023-04-23T15:52:06;2.83;;;2.10;;
18649;SDS011;9454;53.516;10.478;2023-04-23T15:55:12;1.88;;;1.73;;
18649;SDS011;9454;53.516;10.478;2023-04-23T15:58:17;3.42;;;1.58;;
18649;SDS011;9454;53.516;10.478;2023-04-23T16:01:21;2.65;;;1.73;;
18649;SDS011;9454;53.516;10.478;2023-04-23T16:04:28;4.57;;;1.48;;
18649;SDS011;9454;53.516;10.478;2023-04-23T16:07:32;3.50;;;1.67;;
18649;SDS011;9454;53.516;10.478;2023-04-23T16:10:37;2.88;;;1.80;;
18649;SDS011;9454;53.516;10.478;2023-04-23T16:13:42;2.08;;;1.55;;
18649;SDS011;9454;53.516;10.478;2023-04-23T16:16:48;4.30;;;1.90;;
18649;SDS011;9454;53.516;10.478;2023-04-23T16:19:51;4.65;;;1.70;;
18649;SDS011;9454;53.516;10.478;2023-04-23T16:22:55;3.42;;;1.90;;
18649;SDS011;9454;53.516;10.478;2023-04-23T16:26:00;4.15;;;1.67;;
18649;SDS011;9454;53.516;10.478;2023-04-23T16:29:08;2.35;;;1.63;;
18649;SDS011;9454;53.516;10.478;2023-04-23T16:32:24;2.22;;;1.50;;
18649;SDS011;9454;53.516;10.478;2023-04-23T16:35:27;2.40;;;1.58;;
18649;SDS011;9454;53.516;10.478;2023-04-23T16:38:32;6.25;;;1.58;;
18649;SDS011;9454;53.516;10.478;2023-04-23T16:41:39;1.83;;;1.50;;
18649;SDS011;9454;53.516;10.478;2023-04-23T16:44:43;3.95;;;1.80;;
18649;SDS011;9454;53.516;10.478;2023-04-23T16:47:50;2.47;;;1.58;;
18649;SDS011;9454;53.516;10.478;2023-04-23T16:50:53;2.17;;;1.70;;
18649;SDS011;9454;53.516;10.478;2023-04-23T16:53:58;3.30;;;1.77;;
18649;SDS011;9454;53.516;10.478;2023-04-23T16:57:03;2.47;;;1.60;;
18649;SDS011;9454;53.516;10.478;2023-04-23T17:00:08;3.42;;;1.75;;
18649;SDS011;9454;53.516;10.478;2023-04-23T17:03:12;2.38;;;1.73;;
18649;SDS011;9454;53.516;10.478;2023-04-23T17:06:27;4.13;;;1.98;;
18649;SDS011;9454;53.516;10.478;2023-04-23T17:09:31;2.95;;;2.00;;
18649;SDS011;9454;53.516;10.478;2023-04-23T17:12:36;8.02;;;2.20;;
18649;SDS011;9454;53.516;10.478;2023-04-23T17:15:39;3.50;;;2.05;;
18649;SDS011;9454;53.516;10.478;2023-04-23T17:18:46;3.20;;;1.80;;
18649;SDS011;9454;53.516;10.478;2023-04-23T17:21:49;5.20;;;2.05;;
18649;SDS011;9454;53.516;10.478;2023-04-23T17:24:55;3.33;;;1.85;;
18649;SDS011;9454;53.516;10.478;2023-04-23T17:28:00;3.10;;;1.98;;
18649;SDS011;9454;53.516;10.478;2023-04-23T17:31:03;2.20;;;1.80;;
18649;SDS011;9454;53.516;10.478;2023-04-23T17:34:06;3.13;;;2.30;;
18649;SDS011;9454;53.516;10.478;2023-04-23T17:37:10;3.85;;;2.33;;
18649;SDS011;9454;53.516;10.478;2023-04-23T17:40:13;3.55;;;1.88;;
18649;SDS011;9454;53.516;10.478;2023-04-23T17:43:21;2.63;;;1.75;;
18649;SDS011;9454;53.516;10.478;2023-04-23T17:46:25;2.70;;;1.13;;
18649;SDS011;9454;53.516;10.478;2023-04-23T17:49:31;3.67;;;1.98;;
18649;SDS011;9454;53.516;10.478;2023-04-23T17:52:35;3.60;;;2.10;;
18649;SDS011;9454;53.516;10.478;2023-04-23T17:55:41;4.15;;;2.15;;
18649;SDS011;9454;53.516;10.478;2023-04-23T17:58:46;2.75;;;2.28;;
18649;SDS011;9454;53.516;10.478;2023-04-23T18:01:49;2.35;;;1.65;;
18649;SDS011;9454;53.516;10.478;2023-04-23T18:04:53;2.58;;;1.75;;
18649;SDS011;9454;53.516;10.478;2023-04-23T18:07:57;2.40;;;1.88;;
18649;SDS011;9454;53.516;10.478;2023-04-23T18:11:01;3.33;;;1.80;;
18649;SDS011;9454;53.516;10.478;2023-04-23T18:14:07;2.28;;;1.40;;
18649;SDS011;9454;53.516;10.478;2023-04-23T18:17:11;2.92;;;2.00;;
18649;SDS011;9454;53.516;10.478;2023-04-23T18:20:17;2.63;;;1.50;;
18649;SDS011;9454;53.516;10.478;2023-04-23T18:23:25;2.63;;;1.52;;
18649;SDS011;9454;53.516;10.478;2023-04-23T18:26:29;4.75;;;2.72;;
18649;SDS011;9454;53.516;10.478;2023-04-23T18:29:35;4.40;;;2.00;;
18649;SDS011;9454;53.516;10.478;2023-04-23T18:32:40;5.03;;;1.83;;
18649;SDS011;9454;53.516;10.478;2023-04-23T18:35:46;1.40;;;1.30;;
18649;SDS011;9454;53.516;10.478;2023-04-23T18:38:50;5.93;;;1.23;;